Main page
METAR-TAF:

METAR-TAF

Airports :

Canoas Air Force Base

Porto Alegre, Rio Grande do Sul, Brazil

latitude: 30-01S, longitude: 051-13W, elevation: 47 m

Current weather observation

The report was made 4 hours and 50 minutes ago, at 03:00 UTC
Wind 2 kt from variable directions
Temperature 17°C
Humidity 100%
Pressure 1012 hPa
Visibility 10 km or more
no clouds below 1500 m and no cumulonimbus

METAR: SBCO 200300Z VRB02KT CAVOK 17/17 Q1012

Time: 04:50 (07:50 UTC)

Forecast

The report was made 4 hours and 50 minutes ago, at 03:00 UTC
Forecast valid from 20 at 06 UTC to 20 at 18 UTC
Wind 5 kt from the Northwest
Visibility 10 km or more
no clouds below 1500 m and no cumulonimbus
Becoming
from 20 at 15 UTC to 20 at 17 UTC
Visibility 10 km or more
Scattered clouds at a height of 3500 ft

TAF: SBCO 200300Z 2006/2018 32005KT CAVOK TN17/2009Z TX26/2016Z BECMG 2015/2017 9999 SCT035 RMK PER

Weather observations and forecasts of more than 4000 airports (METAR and TAF reports).

The available stations are represented by yellow and red dots on the map.

Hover mouse over dot to see the name of the station.

Then click to see weather observations and forecasts.

To change the map : click on the green buttons with a black cross to zoom in, on the green button with a dash to zoom out, or on the green arrows for adjacent maps.


METAR-TAF: